sensor_id;sensor_type;location;lat;lon;timestamp;P1;durP1;ratioP1;P2;durP2;ratioP2
75922;SDS011;64602;47.542;19.090;2023-02-01T07:00:50;3.30;;;2.10;;
75922;SDS011;64602;47.542;19.090;2023-02-01T07:05:56;3.40;;;2.00;;
75922;SDS011;64602;47.542;19.090;2023-02-01T07:11:06;4.07;;;1.97;;
75922;SDS011;64602;47.542;19.090;2023-02-01T07:16:17;3.67;;;2.05;;
75922;SDS011;64602;47.542;19.090;2023-02-01T07:21:20;4.43;;;2.00;;
75922;SDS011;64602;47.542;19.090;2023-02-01T07:26:23;3.13;;;1.70;;
75922;SDS011;64602;47.542;19.090;2023-02-01T07:31:25;3.63;;;1.70;;
75922;SDS011;64602;47.542;19.090;2023-02-01T07:36:28;2.80;;;1.60;;
75922;SDS011;64602;47.542;19.090;2023-02-01T07:41:30;2.62;;;1.52;;
75922;SDS011;64602;47.542;19.090;2023-02-01T07:46:32;3.67;;;1.67;;
75922;SDS011;64602;47.542;19.090;2023-02-01T07:51:34;4.18;;;1.70;;
75922;SDS011;64602;47.542;19.090;2023-02-01T07:56:36;2.87;;;1.48;;
75922;SDS011;64602;47.542;19.090;2023-02-01T08:01:38;2.30;;;1.20;;
75922;SDS011;64602;47.542;19.090;2023-02-01T08:06:41;2.78;;;1.30;;
75922;SDS011;64602;47.542;19.090;2023-02-01T08:11:43;3.35;;;1.70;;
75922;SDS011;64602;47.542;19.090;2023-02-01T08:16:45;4.97;;;1.97;;
75922;SDS011;64602;47.542;19.090;2023-02-01T08:21:49;6.27;;;1.70;;
75922;SDS011;64602;47.542;19.090;2023-02-01T08:26:52;3.65;;;1.40;;
75922;SDS011;64602;47.542;19.090;2023-02-01T08:31:54;4.03;;;1.50;;
75922;SDS011;64602;47.542;19.090;2023-02-01T08:36:57;3.10;;;1.50;;
75922;SDS011;64602;47.542;19.090;2023-02-01T08:41:59;3.05;;;1.55;;
75922;SDS011;64602;47.542;19.090;2023-02-01T08:47:20;3.08;;;1.20;;
75922;SDS011;64602;47.542;19.090;2023-02-01T08:52:22;2.60;;;1.40;;
75922;SDS011;64602;47.542;19.090;2023-02-01T08:57:24;2.83;;;1.50;;
75922;SDS011;64602;47.542;19.090;2023-02-01T09:02:26;3.65;;;1.25;;
75922;SDS011;64602;47.542;19.090;2023-02-01T09:07:29;3.33;;;1.30;;
75922;SDS011;64602;47.542;19.090;2023-02-01T09:12:32;4.83;;;1.60;;
75922;SDS011;64602;47.542;19.090;2023-02-01T09:17:35;4.10;;;1.25;;
75922;SDS011;64602;47.542;19.090;2023-02-01T09:22:37;3.60;;;1.50;;
75922;SDS011;64602;47.542;19.090;2023-02-01T09:27:41;3.03;;;1.40;;
75922;SDS011;64602;47.542;19.090;2023-02-01T09:32:43;2.90;;;1.23;;
75922;SDS011;64602;47.542;19.090;2023-02-01T09:37:45;4.47;;;1.73;;
75922;SDS011;64602;47.542;19.090;2023-02-01T09:42:53;3.00;;;1.80;;
75922;SDS011;64602;47.542;19.090;2023-02-01T09:47:58;3.78;;;2.00;;
75922;SDS011;64602;47.542;19.090;2023-02-01T09:58:41;7.03;;;2.67;;
75922;SDS011;64602;47.542;19.090;2023-02-01T10:03:57;3.57;;;1.73;;
75922;SDS011;64602;47.542;19.090;2023-02-01T10:14:57;3.35;;;1.45;;
75922;SDS011;64602;47.542;19.090;2023-02-01T10:20:36;2.87;;;1.50;;
75922;SDS011;64602;47.542;19.090;2023-02-01T10:26:08;4.35;;;1.45;;
75922;SDS011;64602;47.542;19.090;2023-02-01T10:31:21;4.72;;;2.25;;
75922;SDS011;64602;47.542;19.090;2023-02-01T10:36:39;2.77;;;1.50;;
75922;SDS011;64602;47.542;19.090;2023-02-01T10:41:43;2.65;;;1.40;;
75922;SDS011;64602;47.542;19.090;2023-02-01T10:46:45;3.97;;;1.45;;
75922;SDS011;64602;47.542;19.090;2023-02-01T10:57:22;4.83;;;1.60;;
75922;SDS011;64602;47.542;19.090;2023-02-01T11:02:31;2.95;;;1.30;;
75922;SDS011;64602;47.542;19.090;2023-02-01T11:07:36;3.10;;;1.50;;
75922;SDS011;64602;47.542;19.090;2023-02-01T11:12:40;3.60;;;1.50;;
75922;SDS011;64602;47.542;19.090;2023-02-01T11:17:43;3.78;;;1.60;;
75922;SDS011;64602;47.542;19.090;2023-02-01T11:22:48;4.57;;;1.70;;
75922;SDS011;64602;47.542;19.090;2023-02-01T11:27:56;4.37;;;1.77;;
75922;SDS011;64602;47.542;19.090;2023-02-01T11:32:58;4.28;;;2.15;;
75922;SDS011;64602;47.542;19.090;2023-02-01T11:38:09;3.53;;;2.10;;
75922;SDS011;64602;47.542;19.090;2023-02-01T11:48:28;4.63;;;2.57;;
75922;SDS011;64602;47.542;19.090;2023-02-01T12:47:29;3.85;;;2.00;;
75922;SDS011;64602;47.542;19.090;2023-02-01T12:52:42;4.03;;;2.10;;
75922;SDS011;64602;47.542;19.090;2023-02-01T12:57:55;3.40;;;1.83;;
75922;SDS011;64602;47.542;19.090;2023-02-01T13:08:23;3.22;;;1.60;;
75922;SDS011;64602;47.542;19.090;2023-02-01T13:18:34;2.80;;;1.40;;
75922;SDS011;64602;47.542;19.090;2023-02-01T13:23:40;3.03;;;1.50;;
75922;SDS011;64602;47.542;19.090;2023-02-01T13:28:47;4.20;;;1.60;;
75922;SDS011;64602;47.542;19.090;2023-02-01T13:44:25;4.60;;;2.03;;
75922;SDS011;64602;47.542;19.090;2023-02-01T13:49:48;4.20;;;1.80;;
75922;SDS011;64602;47.542;19.090;2023-02-01T14:10:46;3.20;;;1.52;;
75922;SDS011;64602;47.542;19.090;2023-02-01T14:36:58;7.20;;;4.47;;
75922;SDS011;64602;47.542;19.090;2023-02-01T14:42:04;5.60;;;1.70;;
75922;SDS011;64602;47.542;19.090;2023-02-01T14:52:23;4.47;;;1.33;;
75922;SDS011;64602;47.542;19.090;2023-02-01T14:57:33;3.60;;;1.47;;
75922;SDS011;64602;47.542;19.090;2023-02-01T15:02:40;3.62;;;1.40;;
75922;SDS011;64602;47.542;19.090;2023-02-01T15:07:44;3.12;;;1.30;;
75922;SDS011;64602;47.542;19.090;2023-02-01T15:12:48;3.73;;;0.90;;
75922;SDS011;64602;47.542;19.090;2023-02-01T15:17:53;2.60;;;0.90;;
75922;SDS011;64602;47.542;19.090;2023-02-01T15:22:58;1.73;;;0.70;;
75922;SDS011;64602;47.542;19.090;2023-02-01T15:28:02;4.28;;;1.40;;
75922;SDS011;64602;47.542;19.090;2023-02-01T15:33:06;3.37;;;0.80;;
75922;SDS011;64602;47.542;19.090;2023-02-01T15:43:31;2.17;;;0.70;;
75922;SDS011;64602;47.542;19.090;2023-02-01T15:48:54;2.00;;;0.60;;
75922;SDS011;64602;47.542;19.090;2023-02-01T15:54:01;3.28;;;1.02;;
75922;SDS011;64602;47.542;19.090;2023-02-01T15:59:16;3.25;;;0.80;;
75922;SDS011;64602;47.542;19.090;2023-02-01T16:04:27;2.97;;;0.80;;
75922;SDS011;64602;47.542;19.090;2023-02-01T16:09:35;4.00;;;1.00;;
75922;SDS011;64602;47.542;19.090;2023-02-01T16:14:40;2.15;;;0.68;;
75922;SDS011;64602;47.542;19.090;2023-02-01T16:19:42;1.87;;;0.70;;
75922;SDS011;64602;47.542;19.090;2023-02-01T16:24:44;3.83;;;1.30;;
75922;SDS011;64602;47.542;19.090;2023-02-01T16:29:46;2.55;;;0.98;;
75922;SDS011;64602;47.542;19.090;2023-02-01T16:34:48;4.45;;;1.00;;
75922;SDS011;64602;47.542;19.090;2023-02-01T16:39:51;4.53;;;0.87;;
75922;SDS011;64602;47.542;19.090;2023-02-01T16:44:53;4.28;;;1.02;;
75922;SDS011;64602;47.542;19.090;2023-02-01T16:49:55;3.47;;;0.90;;
75922;SDS011;64602;47.542;19.090;2023-02-01T16:54:57;2.43;;;0.90;;
75922;SDS011;64602;47.542;19.090;2023-02-01T16:59:59;2.07;;;0.80;;
75922;SDS011;64602;47.542;19.090;2023-02-01T17:05:23;4.03;;;1.50;;
75922;SDS011;64602;47.542;19.090;2023-02-01T17:10:25;2.90;;;1.50;;
75922;SDS011;64602;47.542;19.090;2023-02-01T17:15:34;4.97;;;1.90;;
75922;SDS011;64602;47.542;19.090;2023-02-01T17:20:39;5.75;;;1.85;;
75922;SDS011;64602;47.542;19.090;2023-02-01T17:25:41;4.05;;;1.50;;
75922;SDS011;64602;47.542;19.090;2023-02-01T17:30:43;3.77;;;1.33;;
75922;SDS011;64602;47.542;19.090;2023-02-01T17:35:46;7.68;;;2.00;;
75922;SDS011;64602;47.542;19.090;2023-02-01T17:40:49;4.60;;;1.70;;
75922;SDS011;64602;47.542;19.090;2023-02-01T17:45:52;4.00;;;2.03;;
75922;SDS011;64602;47.542;19.090;2023-02-01T17:50:59;5.50;;;2.10;;
75922;SDS011;64602;47.542;19.090;2023-02-01T17:56:02;5.85;;;1.77;;
75922;SDS011;64602;47.542;19.090;2023-02-01T18:01:04;3.85;;;1.90;;
75922;SDS011;64602;47.542;19.090;2023-02-01T18:06:10;4.47;;;1.43;;
75922;SDS011;64602;47.542;19.090;2023-02-01T18:11:16;3.95;;;1.42;;
75922;SDS011;64602;47.542;19.090;2023-02-01T18:16:24;4.93;;;1.37;;
75922;SDS011;64602;47.542;19.090;2023-02-01T18:21:30;3.10;;;1.00;;
75922;SDS011;64602;47.542;19.090;2023-02-01T18:26:34;3.35;;;1.37;;
75922;SDS011;64602;47.542;19.090;2023-02-01T18:31:39;2.87;;;1.00;;
75922;SDS011;64602;47.542;19.090;2023-02-01T18:36:46;2.50;;;0.63;;
75922;SDS011;64602;47.542;19.090;2023-02-01T18:41:49;2.50;;;0.80;;
75922;SDS011;64602;47.542;19.090;2023-02-01T18:46:52;4.20;;;0.75;;
75922;SDS011;64602;47.542;19.090;2023-02-01T18:51:55;2.97;;;1.00;;
75922;SDS011;64602;47.542;19.090;2023-02-01T18:56:57;2.10;;;0.50;;
75922;SDS011;64602;47.542;19.090;2023-02-01T19:01:59;1.92;;;0.70;;
75922;SDS011;64602;47.542;19.090;2023-02-01T19:07:03;3.35;;;0.77;;
75922;SDS011;64602;47.542;19.090;2023-02-01T19:12:06;2.67;;;0.80;;
75922;SDS011;64602;47.542;19.090;2023-02-01T19:17:08;3.37;;;0.95;;
75922;SDS011;64602;47.542;19.090;2023-02-01T19:22:10;2.10;;;0.90;;
75922;SDS011;64602;47.542;19.090;2023-02-01T19:27:12;2.47;;;0.70;;
75922;SDS011;64602;47.542;19.090;2023-02-01T19:32:15;2.27;;;0.90;;
75922;SDS011;64602;47.542;19.090;2023-02-01T19:37:17;3.05;;;1.10;;
75922;SDS011;64602;47.542;19.090;2023-02-01T19:42:20;2.17;;;0.90;;
75922;SDS011;64602;47.542;19.090;2023-02-01T19:47:22;2.90;;;1.10;;
75922;SDS011;64602;47.542;19.090;2023-02-01T19:52:24;3.22;;;0.93;;
75922;SDS011;64602;47.542;19.090;2023-02-01T19:57:28;3.20;;;1.15;;
75922;SDS011;64602;47.542;19.090;2023-02-01T20:02:31;5.50;;;1.10;;
75922;SDS011;64602;47.542;19.090;2023-02-01T20:07:33;2.83;;;0.90;;
75922;SDS011;64602;47.542;19.090;2023-02-01T20:12:35;3.10;;;1.00;;
75922;SDS011;64602;47.542;19.090;2023-02-01T20:17:37;4.30;;;1.30;;
75922;SDS011;64602;47.542;19.090;2023-02-01T20:22:40;2.63;;;0.90;;
75922;SDS011;64602;47.542;19.090;2023-02-01T20:27:42;3.62;;;1.50;;
75922;SDS011;64602;47.542;19.090;2023-02-01T20:32:45;4.53;;;1.40;;
75922;SDS011;64602;47.542;19.090;2023-02-01T20:37:50;4.57;;;1.50;;
75922;SDS011;64602;47.542;19.090;2023-02-01T20:42:52;5.40;;;1.60;;
75922;SDS011;64602;47.542;19.090;2023-02-01T20:47:55;5.45;;;1.30;;
75922;SDS011;64602;47.542;19.090;2023-02-01T20:52:57;3.77;;;1.50;;
75922;SDS011;64602;47.542;19.090;2023-02-01T20:57:59;2.35;;;0.90;;
75922;SDS011;64602;47.542;19.090;2023-02-01T21:03:02;2.20;;;0.80;;
